Time;durP1;ratioP1;P1;durP2;ratioP2;P2;SDS_P1;SDS_P2;PMS_P1;PMS_P2;Temp;Humidity;BMP_temperature;BMP_pressure;BME280_temperature;BME280_humidity;BME280_pressure;Samples;Min_cycle;Max_cycle;Signal;HPM_P1;HPM_P2
2021/08/24 00:01:18;;;;;;;5.68;2.33;;;;;;;15.32;68.36;102754.59;5109841;28;20433;-84
2021/08/24 00:03:45;;;;;;;7.97;2.17;;;;;;;15.21;69.03;102752.22;5114821;28;20055;-85
2021/08/24 00:06:12;;;;;;;6.93;2.20;;;;;;;15.15;69.53;102750.59;5095873;28;20047;-85
2021/08/24 00:08:40;;;;;;;5.00;2.63;;;;;;;15.09;69.36;102737.59;5101715;28;20062;-83
2021/08/24 00:11:11;;;;;;;4.88;2.05;;;;;;;15.17;69.28;102748.81;5090630;28;20464;-84
2021/08/24 00:13:38;;;;;;;5.18;2.60;;;;;;;15.13;69.50;102754.16;5066170;28;20082;-84
2021/08/24 00:16:05;;;;;;;5.15;2.33;;;;;;;15.11;69.55;102751.59;5094226;28;20044;-84
2021/08/24 00:18:31;;;;;;;5.32;2.17;;;;;;;15.10;69.64;102755.09;5097614;28;20058;-83
2021/08/24 00:20:57;;;;;;;5.60;2.58;;;;;;;14.98;69.85;102742.25;5113762;28;20046;-83
2021/08/24 00:23:26;;;;;;;4.20;1.98;;;;;;;15.02;70.20;102749.16;5113762;28;20356;-84
2021/08/24 00:25:54;;;;;;;5.63;1.95;;;;;;;15.01;70.09;102761.47;5112760;28;20044;-84
2021/08/24 00:28:21;;;;;;;5.78;2.65;;;;;;;14.92;70.58;102750.28;5113538;28;20097;-84
2021/08/24 00:30:47;;;;;;;6.32;2.67;;;;;;;14.88;70.93;102747.72;5113297;28;20044;-83
2021/08/24 00:33:15;;;;;;;7.07;2.60;;;;;;;14.82;71.00;102744.38;5114263;28;20050;-83
2021/08/24 00:35:42;;;;;;;6.78;2.70;;;;;;;14.82;71.25;102747.88;5114630;28;20044;-83
2021/08/24 00:38:13;;;;;;;4.43;2.28;;;;;;;14.73;71.39;102743.69;5114756;28;20048;-82
2021/08/24 00:40:40;;;;;;;4.20;2.08;;;;;;;14.57;71.65;102723.88;5113891;28;20047;-79
2021/08/24 00:43:10;;;;;;;6.93;2.30;;;;;;;14.68;71.95;102752.56;5092156;28;20044;-82
2021/08/24 00:45:39;;;;;;;4.85;2.70;;;;;;;14.64;72.07;102756.16;5093078;28;20537;-80
2021/08/24 00:48:06;;;;;;;4.35;2.55;;;;;;;14.58;72.27;102757.13;5093484;28;20098;-82
2021/08/24 00:50:39;;;;;;;7.25;3.05;;;;;;;14.49;72.75;102758.22;5103235;28;20050;-82
2021/08/24 00:53:10;;;;;;;6.72;2.72;;;;;;;14.36;73.24;102748.84;5121633;28;20044;-80
2021/08/24 00:55:42;;;;;;;5.53;2.65;;;;;;;14.37;73.41;102761.09;5130505;28;20036;-77
2021/08/24 00:58:11;;;;;;;6.57;2.65;;;;;;;14.35;73.38;102760.25;5137019;28;20046;-78
2021/08/24 01:00:43;;;;;;;4.07;2.53;;;;;;;14.33;74.01;102762.94;5127229;28;20052;-83
2021/08/24 01:03:15;;;;;;;7.90;3.03;;;;;;;14.30;73.90;102767.38;5115506;28;20035;-82
2021/08/24 01:05:43;;;;;;;6.30;2.53;;;;;;;14.16;74.20;102757.13;5115347;28;20044;-81
2021/08/24 01:08:30;;;;;;;8.07;2.90;;;;;;;14.23;74.68;102766.63;5115960;28;20048;-82
2021/08/24 01:11:05;;;;;;;6.78;2.65;;;;;;;14.19;74.72;102764.97;5116059;28;20047;-80
2021/08/24 01:13:42;;;;;;;7.38;2.63;;;;;;;14.09;75.62;102757.25;5115404;28;20049;-80
2021/08/24 01:16:33;;;;;;;6.50;3.05;;;;;;;13.89;75.75;102739.28;5115753;28;20043;-81
2021/08/24 01:19:27;;;;;;;6.50;2.78;;;;;;;14.07;75.83;102764.31;5124415;27;20047;-81
2021/08/24 01:22:22;;;;;;;4.70;2.75;;;;;;;14.03;76.10;102760.00;5100408;27;20044;-80
2021/08/24 01:24:56;;;;;;;;;;;;;;;13.88;76.56;102757.72;5124765;27;20043;-82
2021/08/24 01:27:50;;;;;;;6.13;3.00;;;;;;;13.90;77.10;102759.41;5147789;27;19919;-78
2021/08/24 01:30:57;;;;;;;9.35;3.50;;;;;;;13.91;77.07;102766.41;5147425;27;20043;-79
2021/08/24 01:33:31;;;;;;;11.38;3.25;;;;;;;13.86;77.21;102762.09;5089279;28;20047;-82
2021/08/24 01:36:18;;;;;;;7.22;2.95;;;;;;;13.89;77.49;102762.03;5116622;27;20044;-80
2021/08/24 01:38:58;;;;;;;7.65;3.10;;;;;;;13.81;77.79;102763.97;5117549;27;20051;-82
2021/08/24 01:41:48;;;;;;;7.28;3.58;;;;;;;13.80;77.90;102760.44;5118036;27;20039;-83
2021/08/24 01:44:20;;;;;;;10.15;3.80;;;;;;;13.81;77.83;102762.19;5116309;28;20043;-81
2021/08/24 01:47:09;;;;;;;6.75;3.22;;;;;;;13.79;77.90;102760.50;5117290;27;20052;-82
2021/08/24 01:50:01;;;;;;;7.45;3.38;;;;;;;13.70;78.39;102761.53;5098575;28;20051;-81
2021/08/24 01:52:36;;;;;;;8.65;3.45;;;;;;;13.63;78.59;102757.28;5121004;27;20092;-84
2021/08/24 01:55:09;;;;;;;9.52;3.30;;;;;;;13.67;78.45;102766.81;5098248;28;20043;-83
2021/08/24 01:57:44;;;;;;;6.10;2.63;;;;;;;13.54;78.56;102753.06;5116702;27;20096;-83
2021/08/24 02:00:13;;;;;;;7.15;3.35;;;;;;;13.49;78.79;102744.41;5116857;28;20048;-82
2021/08/24 02:02:48;;;;;;;6.78;3.63;;;;;;;13.57;79.05;102756.50;5107012;27;20046;-83
2021/08/24 02:05:21;;;;;;;8.23;4.18;;;;;;;13.67;79.04;102770.34;5124327;27;20047;-82
2021/08/24 02:07:51;;;;;;;7.38;3.38;;;;;;;13.80;78.47;102773.59;5101694;28;20558;-83
2021/08/24 02:10:23;;;;;;;7.18;3.90;;;;;;;13.93;78.16;102772.47;5097088;28;20052;-82
2021/08/24 02:12:52;;;;;;;6.25;3.60;;;;;;;14.06;77.84;102769.59;5101776;27;20043;-82
2021/08/24 02:15:24;;;;;;;8.13;3.03;;;;;;;14.08;77.45;102755.53;5119328;27;20051;-82
2021/08/24 02:17:51;;;;;;;7.00;3.47;;;;;;;14.23;77.29;102766.63;5117095;28;20044;-81
2021/08/24 02:20:26;;;;;;;7.63;4.07;;;;;;;14.31;77.10;102769.13;5116596;28;20051;-80
2021/08/24 02:22:59;;;;;;;7.50;3.33;;;;;;;14.28;77.35;102763.91;5117291;28;20050;-82
2021/08/24 02:25:31;;;;;;;8.13;3.42;;;;;;;14.19;77.88;102764.97;5117275;28;20043;-83
2021/08/24 02:28:06;;;;;;;8.85;4.28;;;;;;;14.20;77.80;102764.94;5117754;28;20044;-82
2021/08/24 02:30:46;;;;;;;7.60;3.92;;;;;;;14.25;77.71;102770.09;5118807;28;20051;-83
2021/08/24 02:33:13;;;;;;;7.70;3.88;;;;;;;14.27;77.83;102767.44;5126460;28;20047;-82
2021/08/24 02:35:53;;;;;;;5.47;3.58;;;;;;;14.34;77.69;102771.66;5132203;28;20040;-77
2021/08/24 02:38:26;;;;;;;9.18;4.13;;;;;;;14.31;77.90;102771.75;5121115;28;20102;-78
2021/08/24 02:41:06;;;;;;;7.03;3.70;;;;;;;14.45;77.43;102777.53;5133474;28;20050;-79
2021/08/24 02:43:42;;;;;;;9.98;3.92;;;;;;;14.41;77.49;102768.00;5133102;28;20040;-78
2021/08/24 02:46:18;;;;;;;6.85;3.78;;;;;;;14.31;77.57;102754.22;5134659;28;20063;-78
2021/08/24 02:48:50;;;;;;;8.98;4.07;;;;;;;14.45;77.59;102774.91;5133877;28;20066;-77
2021/08/24 02:51:18;;;;;;;9.27;3.80;;;;;;;14.42;77.78;102769.75;5132504;28;20044;-79
2021/08/24 02:53:52;;;;;;;6.70;3.30;;;;;;;14.32;77.48;102736.66;5135204;28;20058;-78
2021/08/24 02:56:18;;;;;;;6.47;3.50;;;;;;;14.39;77.88;102769.78;5135675;28;20043;-79
2021/08/24 02:58:44;;;;;;;9.23;3.40;;;;;;;14.32;77.71;102758.56;5135584;28;20043;-78
2021/08/24 03:01:11;;;;;;;6.95;3.60;;;;;;;14.36;77.59;102765.47;5126803;28;20130;-78
2021/08/24 03:03:37;;;;;;;7.93;4.28;;;;;;;14.24;77.67;102744.72;5116545;28;20643;-78
2021/08/24 03:06:04;;;;;;;7.38;3.63;;;;;;;14.39;77.44;102764.53;5118274;28;20065;-79
2021/08/24 03:08:30;;;;;;;6.93;3.95;;;;;;;14.24;77.31;102739.47;5121936;28;20044;-79
2021/08/24 03:10:57;;;;;;;9.52;3.80;;;;;;;14.11;77.63;102720.50;5121279;28;20049;-79
2021/08/24 03:13:32;;;;;;;8.05;3.33;;;;;;;14.41;77.47;102758.38;5117950;28;20044;-79
2021/08/24 03:16:26;;;;;;;7.75;3.97;;;;;;;14.44;77.33;102764.44;5117310;28;20507;-77
2021/08/24 03:19:03;;;;;;;8.85;3.92;;;;;;;14.39;77.39;102757.53;5138329;27;20096;-78
2021/08/24 03:21:36;;;;;;;7.38;3.72;;;;;;;14.44;77.17;102770.59;5129215;27;20096;-77
2021/08/24 03:24:07;;;;;;;6.18;3.40;;;;;;;14.38;77.75;102766.31;5126582;28;20046;-78
2021/08/24 03:26:35;;;;;;;6.10;3.60;;;;;;;14.32;77.52;102760.31;5125888;28;20407;-78
2021/08/24 03:29:07;;;;;;;9.13;4.03;;;;;;;14.19;77.94;102770.22;5125573;28;20054;-77
2021/08/24 03:31:33;;;;;;;6.63;3.80;;;;;;;14.05;78.33;102752.13;5135500;27;20487;-77
2021/08/24 03:34:02;;;;;;;11.45;4.55;;;;;;;14.20;78.16;102771.97;5109893;28;20036;-77
2021/08/24 03:36:27;;;;;;;7.13;3.80;;;;;;;14.21;78.00;102766.66;5126739;27;20115;-78
2021/08/24 03:38:53;;;;;;;9.13;4.22;;;;;;;14.20;78.06;102771.97;5124978;28;20416;-79
2021/08/24 03:41:19;;;;;;;10.02;5.20;;;;;;;13.99;78.41;102763.59;5124734;28;20473;-77
2021/08/24 03:43:45;;;;;;;8.82;4.15;;;;;;;13.85;79.11;102750.72;5124661;28;20044;-79
2021/08/24 03:46:11;;;;;;;6.35;3.60;;;;;;;13.81;79.29;102756.94;5122967;28;20127;-80
2021/08/24 03:48:38;;;;;;;11.98;4.57;;;;;;;13.69;79.91;102763.28;5135414;27;20047;-82
2021/08/24 03:51:04;;;;;;;10.15;4.47;;;;;;;13.56;80.29;102748.63;5146239;27;20043;-78
2021/08/24 03:53:32;;;;;;;9.48;4.43;;;;;;;13.46;80.17;102742.69;5144999;28;20407;-78
2021/08/24 03:55:58;;;;;;;6.47;4.38;;;;;;;13.25;80.71;102736.03;5124638;28;20361;-77
2021/08/24 03:58:25;;;;;;;7.38;4.53;;;;;;;13.24;80.40;102742.16;5126378;28;20050;-78
2021/08/24 04:00:52;;;;;;;10.10;4.65;;;;;;;13.13;80.81;102737.09;5125229;28;20043;-82
2021/08/24 04:03:18;;;;;;;7.43;4.65;;;;;;;13.09;81.35;102748.53;5125800;28;20040;-78
2021/08/24 04:05:44;;;;;;;7.38;4.40;;;;;;;12.92;81.42;102725.19;5127749;28;20076;-77
2021/08/24 04:08:10;;;;;;;7.28;4.78;;;;;;;13.03;81.45;102751.25;5138411;28;20051;-77
2021/08/24 04:10:37;;;;;;;9.60;5.22;;;;;;;12.97;81.55;102742.59;5112207;28;20050;-78
2021/08/24 04:13:04;;;;;;;8.15;4.65;;;;;;;12.91;81.51;102741.81;5110261;28;20058;-77
2021/08/24 04:15:30;;;;;;;9.00;5.15;;;;;;;12.91;81.26;102739.19;5129678;28;20044;-77
2021/08/24 04:17:56;;;;;;;12.75;5.18;;;;;;;12.87;81.41;102742.75;5148660;28;20043;-77
2021/08/24 04:20:23;;;;;;;7.05;5.10;;;;;;;12.79;81.66;102748.09;5149387;28;20073;-78
2021/08/24 04:22:51;;;;;;;7.32;5.57;;;;;;;12.61;82.22;102749.25;5135125;28;20395;-77
2021/08/24 04:25:19;;;;;;;10.75;5.95;;;;;;;12.57;82.28;102744.91;5125787;28;20501;-77
2021/08/24 04:27:45;;;;;;;9.40;5.78;;;;;;;12.60;82.31;102747.50;5125564;28;20052;-77
2021/08/24 04:30:13;;;;;;;10.43;6.20;;;;;;;12.56;82.65;102757.16;5131816;28;20031;-78
2021/08/24 04:32:43;;;;;;;9.70;5.53;;;;;;;12.42;82.39;102735.53;5140946;28;20050;-78
2021/08/24 04:35:09;;;;;;;9.80;6.07;;;;;;;12.44;83.07;102760.81;5132560;28;20047;-78
2021/08/24 04:37:35;;;;;;;10.43;6.95;;;;;;;12.33;83.25;102746.97;5154648;28;20050;-78
2021/08/24 04:40:01;;;;;;;10.77;6.68;;;;;;;12.35;83.19;102760.91;5139208;28;20039;-78
2021/08/24 04:42:27;;;;;;;9.75;6.50;;;;;;;12.39;83.54;102769.59;5152986;27;20047;-82
2021/08/24 04:44:53;;;;;;;11.57;6.78;;;;;;;12.44;83.24;102766.03;5136081;27;20084;-81
2021/08/24 04:47:21;;;;;;;9.68;6.45;;;;;;;12.49;82.93;102773.84;5154134;27;20055;-79
2021/08/24 04:49:48;;;;;;;9.13;6.47;;;;;;;12.46;82.66;102774.75;5141372;28;20031;-80
2021/08/24 04:52:14;;;;;;;9.65;5.82;;;;;;;12.37;82.57;102745.19;5140643;28;20047;-80
2021/08/24 04:54:39;;;;;;;9.68;6.55;;;;;;;12.49;82.52;102766.84;5140686;28;20467;-80
2021/08/24 04:57:06;;;;;;;8.65;6.88;;;;;;;12.52;82.28;102780.78;5138557;28;20384;-83
2021/08/24 04:59:33;;;;;;;9.02;6.35;;;;;;;12.35;82.48;102755.66;5138728;27;20044;-83
2021/08/24 05:01:59;;;;;;;8.85;6.75;;;;;;;12.43;82.64;102771.31;5138594;28;20048;-80
2021/08/24 05:04:26;;;;;;;11.35;7.35;;;;;;;12.42;83.23;102780.03;5141271;27;20028;-81
2021/08/24 05:06:54;;;;;;;9.15;6.35;;;;;;;12.19;83.05;102756.75;5145620;27;20091;-79
2021/08/24 05:09:22;;;;;;;9.15;5.18;;;;;;;12.43;82.75;102789.63;5141136;28;20039;-80
2021/08/24 05:11:48;;;;;;;8.45;6.22;;;;;;;12.34;82.38;102772.28;5139385;28;20044;-79
2021/08/24 05:14:14;;;;;;;9.68;6.53;;;;;;;12.29;82.77;102771.47;5141088;27;20027;-80
2021/08/24 05:16:40;;;;;;;8.75;6.85;;;;;;;12.33;82.87;102792.34;5140587;28;20051;-78
2021/08/24 05:19:07;;;;;;;8.88;6.00;;;;;;;12.17;82.67;102764.63;5149974;27;20043;-79
2021/08/24 05:21:34;;;;;;;9.75;6.53;;;;;;;12.32;82.78;102793.25;5148359;27;20070;-80
2021/08/24 05:24:00;;;;;;;9.70;6.47;;;;;;;12.08;83.06;102759.50;5136120;27;20051;-77
2021/08/24 05:26:28;;;;;;;9.57;6.65;;;;;;;12.21;82.69;102779.41;5135063;28;20051;-78
2021/08/24 05:28:53;;;;;;;7.13;6.18;;;;;;;12.32;82.65;102792.38;5135789;28;20046;-78
2021/08/24 05:31:20;;;;;;;10.65;6.90;;;;;;;12.29;82.72;102795.91;5135181;27;20131;-79
2021/08/24 05:33:47;;;;;;;12.07;7.00;;;;;;;12.21;82.59;102775.94;5141091;27;20039;-79
2021/08/24 05:36:14;;;;;;;9.23;6.93;;;;;;;12.35;82.55;102794.09;5123448;27;20040;-79
2021/08/24 05:38:40;;;;;;;9.75;6.60;;;;;;;12.30;82.62;102788.91;5125401;27;20065;-78
2021/08/24 05:41:07;;;;;;;9.48;6.30;;;;;;;12.42;82.05;102791.38;5151154;27;20468;-78
2021/08/24 05:43:34;;;;;;;9.80;7.80;;;;;;;12.38;82.55;102799.28;5139450;27;20058;-79
2021/08/24 05:46:06;;;;;;;13.05;7.10;;;;;;;12.42;82.48;102795.75;5155313;27;20055;-78
2021/08/24 05:48:33;;;;;;;7.75;6.03;;;;;;;12.44;82.22;102796.63;5136281;27;20047;-78
2021/08/24 05:51:00;;;;;;;9.20;7.05;;;;;;;12.41;82.70;102791.41;5119739;27;20043;-77
2021/08/24 05:53:26;;;;;;;10.65;7.05;;;;;;;12.40;82.41;102802.75;5109913;28;20051;-78
2021/08/24 05:55:53;;;;;;;12.20;7.75;;;;;;;12.41;82.61;102801.88;5126166;27;20126;-81
2021/08/24 05:58:19;;;;;;;11.10;7.80;;;;;;;12.32;82.60;102780.16;5114467;28;20058;-80
2021/08/24 06:00:45;;;;;;;9.20;7.95;;;;;;;12.51;82.17;102797.38;5128310;28;20047;-78
2021/08/24 06:03:11;;;;;;;11.15;8.07;;;;;;;12.58;82.20;102799.06;5125573;28;20048;-78
2021/08/24 06:05:41;;;;;;;12.70;8.13;;;;;;;12.68;82.34;102805.03;5106497;28;20048;-78
2021/08/24 06:08:09;;;;;;;9.65;7.20;;;;;;;12.70;81.89;102793.66;5104112;27;20040;-79
2021/08/24 06:10:36;;;;;;;9.95;7.40;;;;;;;12.73;81.94;102790.13;5103442;28;20063;-80
2021/08/24 06:13:04;;;;;;;9.15;7.80;;;;;;;12.82;81.81;102795.25;5119726;27;20479;-82
2021/08/24 06:15:31;;;;;;;12.25;9.10;;;;;;;12.59;81.98;102757.09;5110857;28;20112;-80
2021/08/24 06:18:01;;;;;;;12.40;9.10;;;;;;;12.88;82.00;102795.16;5086004;28;20404;-79
2021/08/24 06:20:35;;;;;;;13.25;7.88;;;;;;;12.94;81.89;102794.22;5118284;28;20470;-80
2021/08/24 06:23:01;;;;;;;13.25;7.80;;;;;;;13.07;81.49;102802.75;5116387;28;20044;-81
2021/08/24 06:25:28;;;;;;;13.20;8.25;;;;;;;13.16;81.21;102793.88;5098163;28;20044;-82
2021/08/24 06:27:54;;;;;;;11.48;8.02;;;;;;;13.37;80.69;102798.78;5098742;28;20052;-80
2021/08/24 06:30:20;;;;;;;11.38;8.82;;;;;;;13.43;80.18;102792.59;5117926;28;20048;-80
2021/08/24 06:32:50;;;;;;;13.80;9.90;;;;;;;13.53;80.29;102804.66;5116408;28;20506;-79
2021/08/24 06:35:21;;;;;;;10.88;8.82;;;;;;;13.61;79.97;102797.53;5113311;28;20051;-81
2021/08/24 06:37:50;;;;;;;12.30;10.27;;;;;;;13.77;79.52;102792.88;5097367;28;20138;-79
2021/08/24 06:40:17;;;;;;;10.15;8.38;;;;;;;13.67;79.10;102769.44;5116006;28;20316;-82
2021/08/24 06:42:52;;;;;;;10.63;8.18;;;;;;;13.90;78.93;102788.28;5115735;28;20109;-80
2021/08/24 06:45:22;;;;;;;10.20;7.72;;;;;;;13.98;78.63;102795.16;5115417;28;20100;-79
2021/08/24 06:47:48;;;;;;;10.75;7.43;;;;;;;14.00;78.55;102796.84;5115971;28;20047;-81
2021/08/24 06:50:14;;;;;;;12.82;8.23;;;;;;;13.88;78.57;102782.19;5116344;28;20059;-81
2021/08/24 06:52:40;;;;;;;9.80;7.22;;;;;;;13.96;78.78;102794.31;5115997;28;20449;-82
2021/08/24 06:55:08;;;;;;;11.07;7.70;;;;;;;13.99;78.67;102782.00;5114990;28;20035;-81
2021/08/24 06:57:36;;;;;;;11.55;6.65;;;;;;;14.08;78.49;102786.19;5095399;28;20339;-80
2021/08/24 07:00:06;;;;;;;11.30;7.53;;;;;;;14.15;78.31;102774.66;5096289;28;20044;-82
2021/08/24 07:02:32;;;;;;;14.23;8.20;;;;;;;14.20;78.42;102782.47;5095478;28;20039;-82
2021/08/24 07:04:57;;;;;;;11.63;7.63;;;;;;;14.27;77.80;102783.19;5117921;28;20396;-81
2021/08/24 07:07:24;;;;;;;10.05;7.95;;;;;;;14.20;77.64;102750.94;5118258;28;20061;-80
2021/08/24 07:09:52;;;;;;;12.27;7.60;;;;;;;14.55;77.00;102783.50;5116982;28;20147;-84
2021/08/24 07:12:18;;;;;;;11.63;7.65;;;;;;;14.19;77.15;102744.81;5098896;28;20044;-83
2021/08/24 07:14:44;;;;;;;10.35;7.30;;;;;;;14.43;77.10;102768.84;5101807;28;20549;-80
2021/08/24 07:17:10;;;;;;;12.65;7.43;;;;;;;14.57;77.11;102787.81;5119431;28;20043;-80
2021/08/24 07:19:37;;;;;;;9.60;6.55;;;;;;;14.80;76.42;102796.13;5142019;27;20058;-79
2021/08/24 07:22:03;;;;;;;11.77;6.88;;;;;;;14.83;76.50;102798.69;5101947;28;20047;-80
2021/08/24 07:24:29;;;;;;;9.15;6.15;;;;;;;15.01;76.03;102800.03;5097262;28;20052;-81
2021/08/24 07:26:57;;;;;;;10.40;6.13;;;;;;;14.89;75.99;102790.66;5098517;27;20803;-81
2021/08/24 07:29:25;;;;;;;8.93;5.20;;;;;;;14.95;75.60;102810.69;5133860;27;20054;-82
2021/08/24 07:31:51;;;;;;;8.80;5.50;;;;;;;14.93;76.08;102815.09;5125251;27;20051;-80
2021/08/24 07:34:17;;;;;;;8.63;5.35;;;;;;;15.08;75.58;102785.84;5097233;28;20385;-81
2021/08/24 07:36:43;;;;;;;8.13;5.25;;;;;;;15.42;74.79;102790.28;5097969;28;20411;-82
2021/08/24 07:39:09;;;;;;;7.22;5.43;;;;;;;15.72;73.93;102790.41;5124568;27;20101;-83
2021/08/24 07:41:36;;;;;;;9.43;5.43;;;;;;;15.95;73.00;102781.91;5113168;27;20035;-84
2021/08/24 07:44:03;;;;;;;7.72;5.43;;;;;;;16.17;72.42;102802.38;5137363;27;20122;-82
2021/08/24 07:46:29;;;;;;;6.47;3.85;;;;;;;16.13;71.17;102775.25;5140606;27;20191;-83
2021/08/24 07:48:56;;;;;;;7.75;4.30;;;;;;;16.36;70.62;102793.97;5124127;27;20047;-84
2021/08/24 07:51:22;;;;;;;7.68;4.80;;;;;;;16.36;71.00;102792.19;5135282;27;20380;-81
2021/08/24 07:53:49;;;;;;;7.85;4.70;;;;;;;16.22;70.32;102786.44;5120658;28;20050;-85
2021/08/24 07:56:16;;;;;;;6.32;4.47;;;;;;;16.21;69.87;102792.59;5092116;28;20027;-80
2021/08/24 07:58:42;;;;;;;8.80;4.20;;;;;;;16.14;69.80;102782.25;5149670;28;20043;-78
2021/08/24 08:01:08;;;;;;;5.65;3.58;;;;;;;16.03;69.80;102762.38;5144431;28;20043;-77
2021/08/24 08:03:35;;;;;;;11.35;3.97;;;;;;;16.27;69.56;102797.69;5129172;28;20083;-82
2021/08/24 08:06:01;;;;;;;6.72;3.75;;;;;;;16.23;69.21;102781.13;5115617;28;20043;-81
2021/08/24 08:08:28;;;;;;;7.50;3.65;;;;;;;16.26;68.87;102773.13;5104517;28;20039;-82
2021/08/24 08:10:57;;;;;;;9.90;4.38;;;;;;;16.40;68.13;102787.69;5096868;28;20043;-78
2021/08/24 08:13:24;;;;;;;5.30;3.10;;;;;;;16.50;68.28;102797.03;5114309;28;20055;-78
2021/08/24 08:15:51;;;;;;;5.68;3.10;;;;;;;16.57;67.42;102782.75;5113359;28;20052;-80
2021/08/24 08:18:18;;;;;;;5.50;3.15;;;;;;;16.64;66.47;102794.84;5118259;27;20054;-80
2021/08/24 08:20:44;;;;;;;9.95;3.75;;;;;;;16.64;66.71;102792.22;5119238;27;20051;-78
2021/08/24 08:23:14;;;;;;;5.65;3.10;;;;;;;16.64;65.91;102791.38;5122171;27;20506;-78
2021/08/24 08:25:42;;;;;;;8.07;3.10;;;;;;;16.78;65.93;102789.16;5114328;27;20050;-77
2021/08/24 08:28:08;;;;;;;5.97;3.15;;;;;;;16.75;65.33;102781.34;5114885;28;20521;-77
2021/08/24 08:30:35;;;;;;;7.15;3.40;;;;;;;16.85;65.08;102778.44;5098601;28;20510;-77
2021/08/24 08:33:03;;;;;;;6.43;3.75;;;;;;;16.91;65.06;102781.72;5106753;28;20052;-78
2021/08/24 08:35:31;;;;;;;5.97;3.33;;;;;;;16.91;64.42;102792.28;5114199;28;20059;-80
2021/08/24 08:37:58;;;;;;;7.07;3.50;;;;;;;16.95;64.49;102777.25;5117281;28;20043;-79
2021/08/24 08:40:38;;;;;;;6.10;3.40;;;;;;;17.13;63.78;102800.38;5117824;28;20044;-79
2021/08/24 08:43:32;;;;;;;5.78;3.20;;;;;;;17.27;62.44;102799.06;5116570;28;20097;-78
2021/08/24 08:46:09;;;;;;;;;;;;;;;17.30;62.26;102791.06;5114959;28;20043;-78
2021/08/24 08:49:05;;;;;;;5.10;3.05;;;;;;;17.31;62.66;102760.25;5111941;28;19976;-78
2021/08/24 08:51:35;;;;;;;7.15;3.33;;;;;;;17.70;62.15;102784.44;5108995;28;20048;-78
2021/08/24 08:54:07;;;;;;;5.55;2.97;;;;;;;17.72;61.42;102781.72;5112144;28;20044;-80
2021/08/24 08:56:50;;;;;;;5.95;2.63;;;;;;;17.64;61.01;102791.69;5108988;28;20040;-79
2021/08/24 08:59:27;;;;;;;8.45;3.10;;;;;;;17.55;61.15;102767.34;5116573;27;20036;-78
2021/08/24 09:02:22;;;;;;;6.53;2.80;;;;;;;17.81;60.96;102786.69;5115077;27;20395;-79
2021/08/24 09:04:49;;;;;;;5.03;2.97;;;;;;;17.86;60.94;102776.81;5097413;28;20044;-80
2021/08/24 09:07:36;;;;;;;4.82;2.50;;;;;;;17.85;60.69;102776.88;5115019;28;20381;-77
2021/08/24 09:10:28;;;;;;;7.43;2.80;;;;;;;17.91;60.76;102761.66;5102554;27;20043;-80
2021/08/24 09:13:04;;;;;;;6.25;2.50;;;;;;;18.01;59.78;102772.78;5103948;28;20043;-80
2021/08/24 09:15:42;;;;;;;5.47;2.92;;;;;;;18.12;59.61;102774.19;5100764;28;20051;-80
2021/08/24 09:18:18;;;;;;;4.63;2.17;;;;;;;18.03;59.56;102786.81;5078588;28;20068;-79
2021/08/24 09:21:08;;;;;;;4.13;2.35;;;;;;;17.96;59.60;102760.69;5112875;28;20040;-78
2021/08/24 09:23:34;;;;;;;4.65;2.58;;;;;;;18.17;59.90;102785.44;5106730;28;20047;-79
2021/08/24 09:26:11;;;;;;;6.95;2.70;;;;;;;17.97;59.14;102741.25;5114425;28;20135;-80
2021/08/24 09:28:37;;;;;;;6.60;2.95;;;;;;;18.34;58.77;102784.81;5097589;28;20055;-79
2021/08/24 09:31:06;;;;;;;4.40;2.22;;;;;;;18.47;57.90;102785.19;5107209;28;20541;-80
2021/08/24 09:33:33;;;;;;;7.70;2.25;;;;;;;18.27;58.53;102762.19;5113881;28;20044;-79
2021/08/24 09:35:59;;;;;;;4.85;2.05;;;;;;;18.63;57.98;102781.06;5112227;28;20489;-79
2021/08/24 09:38:30;;;;;;;4.82;2.33;;;;;;;18.49;58.14;102786.00;5077693;28;20051;-80
2021/08/24 09:41:00;;;;;;;3.92;2.20;;;;;;;18.42;57.87;102766.00;5089249;28;20051;-83
2021/08/24 09:43:33;;;;;;;4.13;2.42;;;;;;;18.73;56.96;102789.50;5116452;28;20058;-82
2021/08/24 09:46:17;;;;;;;3.38;2.22;;;;;;;18.85;56.71;102788.16;5098093;28;20054;-83
2021/08/24 09:49:07;;;;;;;4.68;2.05;;;;;;;19.08;56.02;102784.59;5115297;28;20048;-83
2021/08/24 09:51:44;;;;;;;4.68;2.30;;;;;;;19.08;56.05;102783.72;5112997;28;20048;-80
2021/08/24 09:54:30;;;;;;;4.07;2.20;;;;;;;19.10;56.36;102777.44;5108772;28;20044;-81
2021/08/24 09:57:17;;;;;;;4.50;2.45;;;;;;;19.25;55.61;102781.25;5101968;28;20052;-81
2021/08/24 09:59:56;;;;;;;5.70;2.47;;;;;;;19.32;55.08;102780.09;5115954;28;20050;-82
2021/08/24 10:02:44;;;;;;;3.55;2.53;;;;;;;19.38;55.86;102771.00;5116377;28;20043;-82
2021/08/24 10:05:15;;;;;;;5.47;2.40;;;;;;;19.41;54.13;102756.75;5110043;28;20067;-77
2021/08/24 10:07:45;;;;;;;5.32;2.58;;;;;;;19.40;55.00;102778.91;5115372;28;20090;-81
2021/08/24 10:10:33;;;;;;;5.07;2.38;;;;;;;19.54;53.88;102781.78;5115588;28;20044;-80
2021/08/24 10:13:20;;;;;;;4.32;2.38;;;;;;;19.65;53.26;102781.34;5113350;28;20127;-81
2021/08/24 10:15:48;;;;;;;4.80;2.22;;;;;;;19.83;53.01;102769.06;5101161;28;20737;-83
2021/08/24 10:18:26;;;;;;;5.32;2.17;;;;;;;20.00;52.12;102778.94;5117036;27;20124;-77
2021/08/24 10:21:00;;;;;;;5.35;2.20;;;;;;;19.93;52.11;102769.56;5119183;27;20044;-79
2021/08/24 10:23:37;;;;;;;4.78;2.22;;;;;;;19.91;51.97;102766.97;5115565;27;20404;-78
2021/08/24 10:26:10;;;;;;;4.68;2.13;;;;;;;20.10;51.50;102774.97;5130722;27;20046;-78
2021/08/24 10:28:54;;;;;;;4.00;1.77;;;;;;;20.44;50.73;102768.06;5095390;28;20051;-78
2021/08/24 10:31:51;;;;;;;3.92;1.92;;;;;;;20.44;50.11;102769.88;5124530;27;20062;-78
2021/08/24 10:34:38;;;;;;;5.68;2.25;;;;;;;19.99;50.99;102767.50;5123667;27;20043;-79
2021/08/24 10:37:26;;;;;;;4.90;2.20;;;;;;;20.18;50.41;102771.97;5123502;28;20096;-80
2021/08/24 10:40:14;;;;;;;7.15;2.80;;;;;;;19.99;50.86;102767.50;5127744;27;20044;-82
2021/08/24 10:42:57;;;;;;;4.18;2.00;;;;;;;20.32;51.06;102760.69;5095808;28;20098;-79
2021/08/24 10:45:29;;;;;;;7.88;4.63;;;;;;;20.76;49.17;102757.78;5112178;27;20058;-82
2021/08/24 10:47:57;;;;;;;7.43;2.72;;;;;;;20.52;50.06;102705.84;5115133;28;20058;-83
2021/08/24 10:50:32;;;;;;;6.03;2.15;;;;;;;21.04;48.70;102752.88;5086180;28;20086;-82
2021/08/24 10:53:12;;;;;;;5.70;2.35;;;;;;;20.70;50.02;102747.41;5094055;28;20162;-80
2021/08/24 10:55:46;;;;;;;5.75;2.63;;;;;;;20.38;50.48;102747.16;5095625;28;20048;-79
2021/08/24 10:59:10;;;;;;;4.55;2.33;;;;;;;20.66;49.27;102739.69;5118818;27;20050;-81
2021/08/24 11:01:51;;;;;;;4.45;2.25;;;;;;;20.38;49.61;102748.94;5085951;28;20510;-80
2021/08/24 11:04:25;;;;;;;5.43;2.30;;;;;;;20.30;50.89;102741.38;5078116;28;20045;-82
2021/08/24 11:07:02;;;;;;;5.13;2.15;;;;;;;20.00;50.65;102741.84;5088195;28;20145;-83
2021/08/24 11:09:54;;;;;;;5.65;2.20;;;;;;;19.74;51.02;102727.94;5118070;27;20408;-83
2021/08/24 11:13:02;;;;;;;5.97;2.20;;;;;;;19.62;51.05;102726.69;5127136;27;20044;-83
2021/08/24 11:15:48;;;;;;;4.45;2.28;;;;;;;19.62;52.17;102747.03;5051957;28;20045;-82
2021/08/24 11:18:29;;;;;;;6.43;2.25;;;;;;;19.57;51.79;102747.25;5051248;28;20479;-81
2021/08/24 11:21:07;;;;;;;6.35;2.78;;;;;;;19.55;51.91;102742.94;5106315;28;20055;-82
2021/08/24 11:24:07;;;;;;;6.32;2.30;;;;;;;19.74;51.61;102743.84;5092766;28;20404;-82
2021/08/24 11:26:44;;;;;;;5.10;2.40;;;;;;;20.03;50.71;102731.13;5057955;28;20060;-81
2021/08/24 11:29:35;;;;;;;6.35;2.42;;;;;;;19.90;50.98;102736.09;5093637;28;20051;-81
2021/08/24 11:32:12;;;;;;;6.72;2.42;;;;;;;19.86;51.52;102731.00;5093690;28;20467;-81
2021/08/24 11:35:03;;;;;;;7.70;2.53;;;;;;;19.68;52.21;102738.81;5093677;28;20142;-81
2021/08/24 11:37:33;;;;;;;4.07;2.30;;;;;;;19.58;52.62;102741.03;5094023;28;20062;-82
2021/08/24 11:40:02;;;;;;;5.10;2.25;;;;;;;19.60;52.72;102740.94;5094191;28;20048;-82
2021/08/24 11:42:42;;;;;;;5.22;1.98;;;;;;;19.67;52.71;102729.16;5093567;28;20048;-82
2021/08/24 11:45:35;;;;;;;4.55;2.25;;;;;;;19.87;52.48;102738.03;5093515;28;20048;-81
2021/08/24 11:48:07;;;;;;;5.45;2.38;;;;;;;;;;5094717;28;20047;-82